createdAt,value
2022-08-20T00:02:14.970Z,4.18
2022-08-20T00:04:42.892Z,4.15
2022-08-20T00:07:11.016Z,4.57
2022-08-20T00:09:38.885Z,5.00
2022-08-20T00:12:08.241Z,4.13
2022-08-20T00:14:37.326Z,4.68
2022-08-20T00:17:06.904Z,4.93
2022-08-20T00:19:34.933Z,4.95
2022-08-20T00:22:02.753Z,4.97
2022-08-20T00:24:30.690Z,5.57
2022-08-20T00:26:58.556Z,5.68
2022-08-20T00:29:26.889Z,6.53
2022-08-20T00:31:54.586Z,4.80
2022-08-20T00:34:22.450Z,4.95
2022-08-20T00:36:50.418Z,4.97
2022-08-20T00:39:18.143Z,5.25
2022-08-20T00:41:45.998Z,5.25
2022-08-20T00:44:22.121Z,4.90
2022-08-20T00:46:51.818Z,5.63
2022-08-20T00:49:28.560Z,5.57
2022-08-20T00:52:14.650Z,5.75
2022-08-20T00:54:53.202Z,5.50
2022-08-20T00:57:50.655Z,5.13
2022-08-20T01:00:35.070Z,4.63
2022-08-20T01:03:02.823Z,4.20
2022-08-20T01:05:30.877Z,4.95
2022-08-20T01:07:58.846Z,4.57
2022-08-20T01:10:34.744Z,4.65
2022-08-20T01:13:11.119Z,4.85
2022-08-20T01:15:43.932Z,6.63
2022-08-20T01:18:21.457Z,5.10
2022-08-20T01:21:09.786Z,4.32
2022-08-20T01:24:04.209Z,4.38
2022-08-20T01:26:42.677Z,4.95
2022-08-20T01:29:22.956Z,4.57
2022-08-20T01:31:51.258Z,4.68
2022-08-20T01:34:20.743Z,4.95
2022-08-20T01:36:57.456Z,4.57
2022-08-20T01:39:32.170Z,4.70
2022-08-20T01:42:27.420Z,3.90
2022-08-20T01:44:55.267Z,5.13
2022-08-20T01:47:31.457Z,4.22
2022-08-20T01:50:23.682Z,4.75
2022-08-20T01:53:08.830Z,4.85
2022-08-20T01:55:38.236Z,4.07
2022-08-20T01:58:06.195Z,4.82
2022-08-20T02:00:35.739Z,4.78
2022-08-20T02:03:04.600Z,4.47
2022-08-20T02:05:35.948Z,4.75
2022-08-20T02:08:04.715Z,5.47
2022-08-20T02:13:17.897Z,5.43
2022-08-20T02:15:45.591Z,4.90
2022-08-20T02:18:15.772Z,5.97
2022-08-20T02:20:44.913Z,6.10
2022-08-20T02:23:13.245Z,6.32
2022-08-20T02:25:43.668Z,6.75
2022-08-20T02:28:15.784Z,6.05
2022-08-20T02:30:49.881Z,5.85
2022-08-20T02:33:20.807Z,6.45
2022-08-20T02:35:56.923Z,5.97
2022-08-20T02:38:25.380Z,5.20
2022-08-20T02:40:53.378Z,5.32
2022-08-20T02:43:21.716Z,6.18
2022-08-20T02:45:49.658Z,6.43
2022-08-20T02:48:21.571Z,6.75
2022-08-20T02:50:58.789Z,7.35
2022-08-20T02:53:29.317Z,6.00
2022-08-20T02:55:57.664Z,6.07
2022-08-20T02:58:25.896Z,5.60
2022-08-20T03:00:54.171Z,5.88
2022-08-20T03:03:22.901Z,5.75
2022-08-20T03:05:57.243Z,6.15
2022-08-20T03:08:27.247Z,5.55
2022-08-20T03:10:55.933Z,5.88
2022-08-20T03:13:24.287Z,5.68
2022-08-20T03:15:59.026Z,5.82
2022-08-20T03:18:33.046Z,6.80
2022-08-20T03:21:01.869Z,7.70
2022-08-20T03:23:30.068Z,7.05
2022-08-20T03:25:58.536Z,7.57
2022-08-20T03:28:27.424Z,7.40
2022-08-20T03:30:58.018Z,7.78
2022-08-20T03:33:28.016Z,7.60
2022-08-20T03:35:56.211Z,6.88
2022-08-20T03:38:32.475Z,7.85
2022-08-20T03:41:03.206Z,6.85
2022-08-20T03:43:31.761Z,7.13
2022-08-20T03:46:00.374Z,7.20
2022-08-20T03:48:28.424Z,7.82
2022-08-20T03:50:57.640Z,6.38
2022-08-20T03:53:25.386Z,6.50
2022-08-20T03:55:56.450Z,6.78
2022-08-20T03:58:35.270Z,8.50
2022-08-20T04:01:07.275Z,6.90
2022-08-20T04:03:36.738Z,6.43
2022-08-20T04:06:04.680Z,5.85
2022-08-20T04:08:32.400Z,6.70
2022-08-20T04:11:00.338Z,7.22
2022-08-20T04:13:30.479Z,7.75
2022-08-20T04:16:01.051Z,7.53
2022-08-20T04:18:28.761Z,5.93
2022-08-20T04:20:56.472Z,6.63
2022-08-20T04:23:24.287Z,6.32
2022-08-20T04:25:52.021Z,7.57
2022-08-20T04:28:27.048Z,9.48
2022-08-20T04:30:58.878Z,7.90
2022-08-20T04:33:33.603Z,6.85
2022-08-20T04:36:06.250Z,8.55
2022-08-20T04:38:47.757Z,7.30
2022-08-20T04:41:23.663Z,6.53
2022-08-20T04:43:55.213Z,7.07
2022-08-20T04:46:28.858Z,7.50
2022-08-20T04:48:57.964Z,6.53
2022-08-20T04:51:26.926Z,7.47
2022-08-20T04:53:56.578Z,7.13
2022-08-20T04:56:29.156Z,7.20
2022-08-20T04:59:01.556Z,6.65
2022-08-20T05:01:29.996Z,7.20
2022-08-20T05:03:58.350Z,6.50
2022-08-20T05:06:32.185Z,6.57
2022-08-20T05:09:01.157Z,6.50
2022-08-20T05:11:34.584Z,7.22
2022-08-20T05:14:09.598Z,7.60
2022-08-20T05:16:39.506Z,6.63
2022-08-20T05:19:12.852Z,7.30
2022-08-20T05:21:41.310Z,7.72
2022-08-20T05:24:10.378Z,8.05
2022-08-20T05:26:38.314Z,9.57
2022-08-20T05:29:07.544Z,8.50
2022-08-20T05:31:35.727Z,8.48
2022-08-20T05:34:12.438Z,8.50
2022-08-20T05:36:49.559Z,7.57
2022-08-20T05:39:21.434Z,7.05
2022-08-20T05:41:50.911Z,6.90
2022-08-20T05:44:20.023Z,6.78
2022-08-20T05:46:48.527Z,7.85
2022-08-20T05:49:21.672Z,9.02
2022-08-20T05:51:53.870Z,7.95
2022-08-20T05:54:23.864Z,7.45
2022-08-20T05:56:51.738Z,8.35
2022-08-20T05:59:24.011Z,7.68
2022-08-20T06:01:52.998Z,7.63
2022-08-20T06:04:32.090Z,7.82
2022-08-20T06:07:07.280Z,8.63
2022-08-20T06:09:36.397Z,8.50
2022-08-20T06:12:07.808Z,7.88
2022-08-20T06:14:36.051Z,8.18
2022-08-20T06:17:18.629Z,8.18
2022-08-20T06:19:50.213Z,6.78
2022-08-20T06:22:22.855Z,6.53
2022-08-20T06:24:56.151Z,8.43
2022-08-20T06:27:24.401Z,10.63
2022-08-20T06:29:53.448Z,8.80
2022-08-20T06:32:31.810Z,8.93
2022-08-20T06:35:08.799Z,8.52
2022-08-20T06:37:39.780Z,8.40
2022-08-20T06:40:13.949Z,9.32
2022-08-20T06:42:47.871Z,8.57
2022-08-20T06:45:27.491Z,8.00
2022-08-20T06:48:01.209Z,8.68
2022-08-20T06:50:43.143Z,9.38
2022-08-20T06:53:19.372Z,7.97
2022-08-20T06:55:54.592Z,8.93
2022-08-20T06:58:36.126Z,7.47
2022-08-20T07:01:09.552Z,7.28
2022-08-20T07:03:55.562Z,8.77
2022-08-20T07:06:26.184Z,8.77
2022-08-20T07:08:55.855Z,7.32
2022-08-20T07:11:28.005Z,7.50
2022-08-20T07:13:59.581Z,7.40
2022-08-20T07:16:28.054Z,7.07
2022-08-20T07:18:56.207Z,6.95
2022-08-20T07:21:24.686Z,6.95
2022-08-20T07:23:53.164Z,7.15
2022-08-20T07:26:20.881Z,6.40
2022-08-20T07:28:49.108Z,6.97
2022-08-20T07:31:35.855Z,7.13
2022-08-20T07:34:04.472Z,8.13
2022-08-20T07:36:32.618Z,7.90
2022-08-20T07:39:05.946Z,8.80
2022-08-20T07:41:34.513Z,7.60
2022-08-20T07:44:02.826Z,7.43
2022-08-20T07:46:31.623Z,8.93
2022-08-20T07:48:59.929Z,8.57
2022-08-20T07:51:28.701Z,9.35
2022-08-20T07:53:58.454Z,8.35
2022-08-20T07:56:27.959Z,7.63
2022-08-20T07:58:59.271Z,9.15
2022-08-20T08:01:31.438Z,7.85
2022-08-20T08:04:00.736Z,8.85
2022-08-20T08:06:31.596Z,10.57
2022-08-20T08:09:08.414Z,14.77
2022-08-20T08:11:46.342Z,13.75
2022-08-20T08:14:26.815Z,14.32
2022-08-20T08:17:00.071Z,12.82
2022-08-20T08:19:38.836Z,11.93
2022-08-20T08:22:12.294Z,13.02
2022-08-20T08:24:57.263Z,11.90
2022-08-20T08:27:25.979Z,11.27
2022-08-20T08:29:54.634Z,12.07
2022-08-20T08:32:22.427Z,10.68
2022-08-20T08:34:50.148Z,10.40
2022-08-20T08:37:17.892Z,11.38
2022-08-20T08:39:45.818Z,11.13
2022-08-20T08:42:37.078Z,11.85
2022-08-20T08:45:10.793Z,13.02
2022-08-20T08:47:41.303Z,12.68
2022-08-20T08:50:50.181Z,11.88
2022-08-20T08:53:30.755Z,12.95
2022-08-20T08:55:59.992Z,11.98
2022-08-20T08:58:28.145Z,12.43
2022-08-20T09:00:55.874Z,13.25
2022-08-20T09:03:31.563Z,12.25
2022-08-20T09:06:02.504Z,11.38
2022-08-20T09:08:40.190Z,10.65
2022-08-20T09:11:09.565Z,10.80
2022-08-20T09:13:37.809Z,10.93
2022-08-20T09:16:06.175Z,10.77
2022-08-20T09:18:33.962Z,10.65
2022-08-20T09:21:01.795Z,9.07
2022-08-20T09:23:29.639Z,9.55
2022-08-20T09:25:57.840Z,9.05
2022-08-20T09:28:25.680Z,9.23
2022-08-20T09:31:00.366Z,9.20
2022-08-20T09:33:28.100Z,9.27
2022-08-20T09:35:55.882Z,8.95
2022-08-20T09:38:23.626Z,9.18
2022-08-20T09:40:51.399Z,8.95
2022-08-20T09:43:19.270Z,8.80
2022-08-20T09:45:46.959Z,9.70
2022-08-20T09:48:14.638Z,10.52
2022-08-20T09:50:48.618Z,9.00
2022-08-20T09:53:19.967Z,9.93
2022-08-20T09:55:53.798Z,8.77
2022-08-20T09:58:26.172Z,9.63
2022-08-20T10:00:53.976Z,8.15
2022-08-20T10:03:21.749Z,8.98
2022-08-20T10:05:49.483Z,9.00
2022-08-20T10:08:18.221Z,9.27
2022-08-20T10:10:45.969Z,9.32
2022-08-20T10:13:15.348Z,9.45
2022-08-20T10:15:43.497Z,10.38
2022-08-20T10:18:12.465Z,11.20
2022-08-20T10:20:40.752Z,11.00
2022-08-20T10:23:08.909Z,11.18
2022-08-20T10:25:37.096Z,10.95
2022-08-20T10:28:05.939Z,9.88
2022-08-20T10:30:35.318Z,10.63
2022-08-20T10:33:03.288Z,10.45
2022-08-20T10:35:31.307Z,9.73
2022-08-20T10:37:59.105Z,9.18
2022-08-20T10:40:27.155Z,9.30
2022-08-20T10:42:54.885Z,9.02
2022-08-20T10:45:22.576Z,9.43
2022-08-20T10:47:50.764Z,10.35
2022-08-20T10:50:20.148Z,9.40
2022-08-20T10:52:48.136Z,9.18
2022-08-20T10:55:16.549Z,8.93
2022-08-20T10:57:45.006Z,8.15
2022-08-20T11:00:17.279Z,7.88
2022-08-20T11:02:45.536Z,9.27
2022-08-20T11:05:13.800Z,9.60
2022-08-20T11:07:49.808Z,9.40
2022-08-20T11:10:27.924Z,8.63
2022-08-20T11:12:56.130Z,9.27
2022-08-20T11:15:24.523Z,7.90
2022-08-20T11:17:53.307Z,8.35
2022-08-20T11:20:26.106Z,9.90
2022-08-20T11:22:54.991Z,9.30
2022-08-20T11:25:22.792Z,9.75
2022-08-20T11:27:53.824Z,8.82
2022-08-20T11:30:35.889Z,9.38
2022-08-20T11:33:05.517Z,10.95
2022-08-20T11:35:48.094Z,8.98
2022-08-20T11:38:19.700Z,9.02
2022-08-20T11:40:48.759Z,10.80
2022-08-20T11:43:17.759Z,10.68
2022-08-20T11:45:50.024Z,11.15
2022-08-20T11:48:18.579Z,12.90
2022-08-20T11:50:47.528Z,11.27
2022-08-20T11:53:15.923Z,13.60
2022-08-20T11:55:44.721Z,13.10
2022-08-20T12:00:41.523Z,12.38
2022-08-20T12:03:11.643Z,12.95
2022-08-20T12:05:44.898Z,13.13
2022-08-20T12:08:26.893Z,12.40
2022-08-20T12:11:00.042Z,12.73
2022-08-20T12:13:47.959Z,12.27
2022-08-20T12:16:19.493Z,12.73
2022-08-20T12:18:48.944Z,12.18
2022-08-20T12:21:17.152Z,11.57
2022-08-20T12:23:45.415Z,11.68
2022-08-20T12:26:13.603Z,10.88
2022-08-20T12:28:41.329Z,12.20
2022-08-20T12:31:09.220Z,12.05
2022-08-20T12:33:37.185Z,11.48
2022-08-20T12:36:05.189Z,11.63
2022-08-20T12:38:33.079Z,11.82
2022-08-20T12:41:01.282Z,13.93
2022-08-20T12:43:29.082Z,15.18
2022-08-20T12:45:56.863Z,14.45
2022-08-20T12:48:24.802Z,14.80
2022-08-20T12:50:52.941Z,14.07
2022-08-20T12:53:20.753Z,17.45
2022-08-20T12:55:48.571Z,16.25
2022-08-20T12:58:16.424Z,17.38
2022-08-20T13:00:48.629Z,15.50
2022-08-20T13:03:20.954Z,15.07
2022-08-20T13:05:50.112Z,14.15
2022-08-20T13:08:19.383Z,14.98
2022-08-20T13:10:47.694Z,15.35
2022-08-20T13:13:20.879Z,15.15
2022-08-20T13:15:50.990Z,15.20
2022-08-20T13:18:20.455Z,14.10
2022-08-20T13:20:49.719Z,14.15
2022-08-20T13:23:17.937Z,13.13
2022-08-20T13:25:45.646Z,15.32
2022-08-20T13:28:13.377Z,14.30
2022-08-20T13:30:41.581Z,14.52
2022-08-20T13:33:10.092Z,16.10
2022-08-20T13:35:37.903Z,14.48
2022-08-20T13:38:06.025Z,16.65
2022-08-20T13:40:33.829Z,16.52
2022-08-20T13:43:06.818Z,16.50
2022-08-20T13:45:37.216Z,16.38
2022-08-20T13:50:38.035Z,16.67
2022-08-20T13:53:05.786Z,17.15
2022-08-20T13:55:38.581Z,16.45
2022-08-20T13:58:08.234Z,15.10
2022-08-20T14:00:36.841Z,15.75
2022-08-20T14:03:06.667Z,16.20
2022-08-20T14:08:14.645Z,16.50
2022-08-20T14:10:44.367Z,15.13
2022-08-20T14:13:15.893Z,15.98
2022-08-20T14:15:45.066Z,16.52
2022-08-20T14:18:14.833Z,15.88
2022-08-20T14:20:45.367Z,16.23
2022-08-20T14:23:15.095Z,17.58
2022-08-20T14:25:47.655Z,16.23
2022-08-20T14:28:26.060Z,15.38
2022-08-20T14:30:54.900Z,15.05
2022-08-20T14:33:24.695Z,15.70
2022-08-20T14:35:54.576Z,15.60
2022-08-20T14:38:23.006Z,15.20
2022-08-20T14:40:50.866Z,16.10
2022-08-20T14:43:19.594Z,16.58
2022-08-20T14:45:47.334Z,15.23
2022-08-20T14:48:15.428Z,16.60
2022-08-20T14:50:43.390Z,16.77
2022-08-20T14:53:11.149Z,16.13
2022-08-20T14:55:39.783Z,15.77
2022-08-20T14:58:13.761Z,14.43
2022-08-20T15:00:43.128Z,14.55
2022-08-20T15:03:11.136Z,15.85
2022-08-20T15:05:39.572Z,15.50
2022-08-20T15:08:10.651Z,16.27
2022-08-20T15:10:39.762Z,16.05
2022-08-20T15:13:09.967Z,16.15
2022-08-20T15:15:39.427Z,16.42
2022-08-20T15:18:07.958Z,15.50
2022-08-20T15:20:39.939Z,16.15
2022-08-20T15:23:07.907Z,16.33
2022-08-20T15:25:38.069Z,17.02
2022-08-20T15:28:09.490Z,15.90
2022-08-20T15:30:41.194Z,18.90
2022-08-20T15:33:11.193Z,15.65
2022-08-20T15:35:39.228Z,16.08
2022-08-20T15:38:07.615Z,15.25
2022-08-20T15:40:35.653Z,16.40
2022-08-20T15:43:05.770Z,17.10
2022-08-20T15:45:35.966Z,17.95
2022-08-20T15:48:16.697Z,16.33
2022-08-20T15:51:11.986Z,15.82
2022-08-20T15:54:10.291Z,16.48
2022-08-20T15:56:53.513Z,16.55
2022-08-20T15:59:47.266Z,15.30
2022-08-20T16:03:06.304Z,14.77
2022-08-20T16:05:54.772Z,15.45
2022-08-20T16:08:51.634Z,16.80
2022-08-20T16:12:00.901Z,16.70
2022-08-20T16:14:36.496Z,15.80
2022-08-20T16:17:17.882Z,15.75
2022-08-20T16:20:22.268Z,16.05
2022-08-20T16:22:53.363Z,16.77
2022-08-20T16:25:24.646Z,16.20
2022-08-20T16:28:16.720Z,15.98
2022-08-20T16:30:50.299Z,15.52
2022-08-20T16:33:46.506Z,16.85
2022-08-20T16:36:34.725Z,15.95
2022-08-20T16:39:08.685Z,15.02
2022-08-20T16:41:41.912Z,15.48
2022-08-20T16:44:35.259Z,15.05
2022-08-20T16:47:22.199Z,16.08
2022-08-20T16:49:58.385Z,16.23
2022-08-20T16:52:26.473Z,16.17
2022-08-20T16:54:54.356Z,16.02
2022-08-20T16:57:22.365Z,15.95
2022-08-20T17:00:05.417Z,16.25
2022-08-20T17:02:33.259Z,16.02
2022-08-20T17:05:04.773Z,18.10
2022-08-20T17:07:51.323Z,16.33
2022-08-20T17:10:26.817Z,17.13
2022-08-20T17:13:00.036Z,19.10
2022-08-20T17:15:34.172Z,18.33
2022-08-20T17:18:26.512Z,19.58
2022-08-20T17:21:00.840Z,18.50
2022-08-20T17:23:40.645Z,16.67
2022-08-20T17:26:29.731Z,17.50
2022-08-20T17:29:21.257Z,18.05
2022-08-20T17:32:10.202Z,17.33
2022-08-20T17:34:49.884Z,17.13
2022-08-20T17:37:39.309Z,17.05
2022-08-20T17:40:18.779Z,17.55
2022-08-20T17:42:56.918Z,17.33
2022-08-20T17:45:41.356Z,18.67
2022-08-20T17:48:20.684Z,16.35
2022-08-20T17:50:50.052Z,16.45
2022-08-20T17:53:25.892Z,16.75
2022-08-20T17:56:01.330Z,16.25
2022-08-20T17:58:54.201Z,17.75
2022-08-20T18:01:25.918Z,17.13
2022-08-20T18:03:54.450Z,16.73
2022-08-20T18:07:18.185Z,19.02
2022-08-20T18:10:11.789Z,17.42
2022-08-20T18:13:25.180Z,16.88
2022-08-20T18:16:01.177Z,16.45
2022-08-20T18:18:57.114Z,18.08
2022-08-20T18:22:06.006Z,17.80
2022-08-20T18:25:08.857Z,16.45
2022-08-20T18:27:44.663Z,16.85
2022-08-20T18:30:22.727Z,17.70
2022-08-20T18:33:07.563Z,17.58
2022-08-20T18:35:39.111Z,18.85
2022-08-20T18:38:22.638Z,17.38
2022-08-20T18:40:55.071Z,16.60
2022-08-20T18:43:30.635Z,17.83
2022-08-20T18:46:23.562Z,15.77
2022-08-20T18:49:05.346Z,16.67
2022-08-20T18:51:50.684Z,16.55
2022-08-20T18:54:32.719Z,16.83
2022-08-20T18:57:18.289Z,15.77
2022-08-20T19:00:19.482Z,15.75
2022-08-20T19:03:37.495Z,15.77
2022-08-20T19:06:39.263Z,15.38
2022-08-20T19:09:50.209Z,15.07
2022-08-20T19:12:42.009Z,16.05
2022-08-20T19:15:19.043Z,17.38
2022-08-20T19:18:24.910Z,15.45
2022-08-20T19:21:00.276Z,16.52
2022-08-20T19:23:35.708Z,16.38
2022-08-20T19:26:25.773Z,16.48
2022-08-20T19:29:02.333Z,16.50
2022-08-20T19:31:35.196Z,16.52
2022-08-20T19:34:19.924Z,16.05
2022-08-20T19:37:27.362Z,18.02
2022-08-20T19:39:55.753Z,15.98
2022-08-20T19:42:32.144Z,15.88
2022-08-20T19:45:17.243Z,16.50
2022-08-20T19:48:10.538Z,17.55
2022-08-20T19:50:50.656Z,16.65
2022-08-20T19:53:33.372Z,18.10
2022-08-20T19:56:14.854Z,16.48
2022-08-20T19:58:43.404Z,16.77
2022-08-20T20:01:19.424Z,17.17
2022-08-20T20:04:16.549Z,16.92
2022-08-20T20:06:48.390Z,16.40
2022-08-20T20:09:28.083Z,17.85
2022-08-20T20:11:57.291Z,17.30
2022-08-20T20:14:37.452Z,16.45
2022-08-20T20:17:08.717Z,17.52
2022-08-20T20:20:02.307Z,16.65
2022-08-20T20:22:35.502Z,17.40
2022-08-20T20:25:33.781Z,16.27
2022-08-20T20:28:41.807Z,16.45
2022-08-20T20:31:28.494Z,16.23
2022-08-20T20:34:09.152Z,15.63
2022-08-20T20:36:45.139Z,16.02
2022-08-20T20:39:40.587Z,17.63
2022-08-20T20:42:25.645Z,16.00
2022-08-20T20:44:54.465Z,17.45
2022-08-20T20:47:35.959Z,17.42
2022-08-20T20:50:11.117Z,17.67
2022-08-20T20:52:55.703Z,19.10
2022-08-20T20:55:33.794Z,15.23
2022-08-20T20:58:03.179Z,16.77
2022-08-20T21:00:34.278Z,15.65
2022-08-20T21:03:04.587Z,16.13
2022-08-20T21:05:33.317Z,16.15
2022-08-20T21:08:06.125Z,16.58
2022-08-20T21:10:38.380Z,17.23
2022-08-20T21:13:09.004Z,16.45
2022-08-20T21:15:39.214Z,17.08
2022-08-20T21:18:09.289Z,17.58
2022-08-20T21:20:37.732Z,18.80
2022-08-20T21:23:06.177Z,18.23
2022-08-20T21:25:35.487Z,17.92
2022-08-20T21:28:04.307Z,16.50
2022-08-20T21:30:32.473Z,7.95
2022-08-20T21:33:00.777Z,3.60
2022-08-20T21:35:28.588Z,2.30
2022-08-20T21:37:56.277Z,2.35
2022-08-20T21:40:24.137Z,2.15
2022-08-20T21:42:56.684Z,1.95
2022-08-20T21:45:28.360Z,1.80
2022-08-20T21:47:57.771Z,1.67
2022-08-20T21:50:26.500Z,1.85
2022-08-20T21:52:59.504Z,1.90
2022-08-20T21:55:39.213Z,2.03
2022-08-20T21:58:08.860Z,2.05
2022-08-20T22:00:58.931Z,2.40
2022-08-20T22:03:35.029Z,2.53
2022-08-20T22:06:09.706Z,2.20
2022-08-20T22:08:37.926Z,2.50
2022-08-20T22:11:08.128Z,2.72
2022-08-20T22:13:36.508Z,2.28
2022-08-20T22:16:09.003Z,2.30
2022-08-20T22:18:37.482Z,2.30
2022-08-20T22:21:13.962Z,2.15
2022-08-20T22:23:42.042Z,2.10
2022-08-20T22:26:10.066Z,2.25
2022-08-20T22:28:38.709Z,2.42
2022-08-20T22:31:07.654Z,2.17
2022-08-20T22:33:36.138Z,1.85
2022-08-20T22:36:06.356Z,2.22
2022-08-20T22:38:34.223Z,2.45
2022-08-20T22:41:06.320Z,2.42
2022-08-20T22:43:37.108Z,1.90
2022-08-20T22:46:31.664Z,1.90
2022-08-20T22:48:59.756Z,2.00
2022-08-20T22:51:34.838Z,2.15
2022-08-20T22:54:06.121Z,1.83
2022-08-20T22:56:33.891Z,2.50
2022-08-20T22:59:04.227Z,1.98
2022-08-20T23:01:32.038Z,1.90
2022-08-20T23:04:34.231Z,2.22
2022-08-20T23:07:09.618Z,1.70
2022-08-20T23:09:42.185Z,1.80
2022-08-20T23:12:10.635Z,2.40
2022-08-20T23:14:38.582Z,2.08
2022-08-20T23:17:14.442Z,2.10
2022-08-20T23:19:43.069Z,1.98
2022-08-20T23:22:11.562Z,1.77
2022-08-20T23:24:39.590Z,1.65
2022-08-20T23:27:11.810Z,1.90
2022-08-20T23:29:39.726Z,1.90
2022-08-20T23:32:07.550Z,1.92
2022-08-20T23:34:35.231Z,1.80
2022-08-20T23:37:05.161Z,1.67
2022-08-20T23:39:33.896Z,1.63
2022-08-20T23:42:02.504Z,1.60
2022-08-20T23:44:30.462Z,1.60
2022-08-20T23:47:02.565Z,1.67
2022-08-20T23:49:32.324Z,1.50
2022-08-20T23:52:00.848Z,1.38
2022-08-20T23:54:32.987Z,2.38
2022-08-20T23:57:00.771Z,1.67
2022-08-20T23:59:28.561Z,1.50
